Chatham-Kent, Ontario

Past 24 Hour Conditions

This table is a summary of hourly weather conditions for the past 24 hours. This summary includes the following parameters: temperature, humidity, dew point, wind speed and direction, air pressure, visibility and/or wind chill and humidex.
Date / Time
(EDT)
Conditions Temp (°F) Humidity (%) Dew Point (°F) Wind (mph) Pressure (inches) Vis (mi) Humidex
28 July 2014
8:00 Mostly Cloudy 62 88 58 N 23 gust 29 29.7 10 *
7:00 Cloudy 63 93 61 NNW 16 gust 23 29.7 10 *
6:00 Light Rain 63 94 61 NNW 14 gust 21 29.7 10 *
5:00 Light Rain 62 94 61 NW 9 29.6 10 *
4:00 Cloudy 62 93 60 NW 10 29.6 10 *
3:00 Cloudy 62 93 60 NW 10 gust 18 29.6 10 *
2:00 Cloudy 61   94 60 NW 10 29.6 10 *
1:00 Cloudy 62 93 60 NW 8 29.7 10 *
00:00 Cloudy 62 96 61 NW 11 gust 20 29.7 10 *
27 July 2014
23:00 Mostly Cloudy 62 94 60 E 2 29.6 10 *
22:00 Mostly Cloudy 62 93 60 NE 7 29.6 10 *
21:00 Thunderstorm 63 93 61 NNE 16 gust 24 29.7 7 *
20:00 Thunderstorm 64 92 62 NNW 17 gust 25 29.6 7 *
19:00 Thunderstorm 67 85 62 NNW 20 gust 31 29.6 6 *
18:00 Mostly Cloudy 74 84 69 S 11 gust 17 29.6 8 88
17:00 Sunny 78 73 69 SSE 11 29.6 10 92
16:00 Sunny 80   69 69 SSE 7 29.6 10 94
15:00 Mainly Sunny 79 70 69 SSE 9 29.7 10 93
14:00 Mostly Cloudy 77 71 68 SSW 9 29.7 10 91
13:00 Mostly Cloudy 78 65 65 SSW 10 29.7 10 89
12:00 Sunny 77 74 68 SW 16 29.7 10 91
11:00 Mostly Cloudy 77 79 70 SW 13 gust 20 29.8 9 92
10:00 Cloudy 72 86 68 SW 9 29.8 7 86
9:00 Mist 72 87 68 SW 7 29.8 6 86
8:00 Mist 70 89 66 calm 29.7 5 82
N/A
Not available
 ↑ 
Highest temperature
 ↓ 
Lowest temperature
*
Value not significant.

If you require additional historical weather information, please visit Climate Data Online.